Time;durP1;ratioP1;P1;durP2;ratioP2;P2;SDS_P1;SDS_P2;PMS_P1;PMS_P2;Temp;Humidity;BMP_temperature;BMP_pressure;BME280_temperature;BME280_humidity;BME280_pressure;Samples;Min_cycle;Max_cycle;Signal;HPM_P1;HPM_P2
2021/12/11 00:02:28;;;;;;;55.65;26.10;;;;;;;;;;6100256;23;20018;-96
2021/12/11 00:04:56;;;;;;;56.00;25.88;;;;;;;;;;6102965;23;20022;-96
2021/12/11 00:07:23;;;;;;;53.15;27.48;;;;;;;;;;6104606;23;20021;-96
2021/12/11 00:09:51;;;;;;;57.40;27.35;;;;;;;;;;6106074;23;20024;-96
2021/12/11 00:12:21;;;;;;;62.33;30.98;;;;;;;;;;6109809;23;20018;-95
2021/12/11 00:14:51;;;;;;;58.67;28.77;;;;;;;;;;6109797;23;20533;-96
2021/12/11 00:17:23;;;;;;;57.40;26.80;;;;;;;;;;6113300;23;20065;-96
2021/12/11 00:19:49;;;;;;;56.35;28.08;;;;;;;;;;6092876;23;20474;-96
2021/12/11 00:22:20;;;;;;;57.13;29.73;;;;;;;;;;6142993;23;20533;-96
2021/12/11 00:24:47;;;;;;;63.85;30.25;;;;;;;;;;6120892;23;20066;-96
2021/12/11 00:27:25;;;;;;;60.63;30.80;;;;;;;;;;6145868;23;20069;-96
2021/12/11 00:29:53;;;;;;;62.00;30.33;;;;;;;;;;6115991;23;20041;-96
2021/12/11 00:32:41;;;;;;;59.35;28.95;;;;;;;;;;6077989;23;20029;-96
2021/12/11 00:35:31;;;;;;;55.30;27.60;;;;;;;;;;6150126;23;20021;-96
2021/12/11 00:38:18;;;;;;;56.38;27.60;;;;;;;;;;6150734;23;20065;-96
2021/12/11 00:40:56;;;;;;;67.65;30.48;;;;;;;;;;6102730;23;20057;-96
2021/12/11 00:44:02;;;;;;;49.30;26.35;;;;;;;;;;6107753;23;20002;-95
2021/12/11 00:46:33;;;;;;;60.33;28.92;;;;;;;;;;6128534;23;20029;-96
2021/12/11 00:52:49;;;;;;;50.92;26.70;;;;;;;;;;6154017;23;20040;-96
2021/12/11 00:59:19;;;;;;;60.08;29.55;;;;;;;;;;6155104;23;20017;-95
2021/12/11 01:15:26;;;;;;;50.13;25.30;;;;;;;;;;6134785;23;20018;-95
2021/12/11 01:18:10;;;;;;;46.92;23.88;;;;;;;;;;6099953;23;20029;-95
2021/12/11 01:20:50;;;;;;;52.47;24.30;;;;;;;;;;6114329;23;20049;-96
2021/12/11 01:23:34;;;;;;;49.15;26.13;;;;;;;;;;6093150;23;20045;-95
2021/12/11 01:26:01;;;;;;;51.05;23.95;;;;;;;;;;6100731;23;20447;-96
2021/12/11 01:28:27;;;;;;;47.25;24.08;;;;;;;;;;6126316;23;20014;-96
2021/12/11 01:30:54;;;;;;;52.83;25.35;;;;;;;;;;6101313;23;20080;-95
2021/12/11 01:33:20;;;;;;;51.22;22.50;;;;;;;;;;6103151;23;20009;-96
2021/12/11 01:35:47;;;;;;;50.42;23.13;;;;;;;;;;6127023;23;20006;-95
2021/12/11 01:38:15;;;;;;;46.03;24.02;;;;;;;;;;6125806;23;20018;-96
2021/12/11 01:40:43;;;;;;;48.78;23.42;;;;;;;;;;6101458;23;20073;-96
2021/12/11 01:43:09;;;;;;;47.33;23.50;;;;;;;;;;6101200;23;20006;-95
2021/12/11 01:45:36;;;;;;;51.85;23.27;;;;;;;;;;6101282;23;20088;-96
2021/12/11 01:48:02;;;;;;;47.13;24.02;;;;;;;;;;6124492;23;20010;-96
2021/12/11 01:50:37;;;;;;;45.40;22.77;;;;;;;;;;6100097;23;20041;-96
2021/12/11 01:53:05;;;;;;;44.85;22.15;;;;;;;;;;6101450;23;20032;-95
2021/12/11 01:55:33;;;;;;;42.33;22.10;;;;;;;;;;6126168;23;20030;-96
2021/12/11 01:57:59;;;;;;;44.25;22.63;;;;;;;;;;6100924;23;20014;-96
2021/12/11 02:00:34;;;;;;;46.92;23.20;;;;;;;;;;6102107;23;20021;-96
2021/12/11 02:03:04;;;;;;;47.08;22.40;;;;;;;;;;6102036;23;20017;-96
2021/12/11 02:05:31;;;;;;;43.47;22.70;;;;;;;;;;6126230;23;20018;-96
2021/12/11 02:08:00;;;;;;;48.88;24.25;;;;;;;;;;6102017;23;20049;-96
2021/12/11 02:10:29;;;;;;;47.15;24.13;;;;;;;;;;6124420;23;20049;-96
2021/12/11 02:12:56;;;;;;;43.03;20.27;;;;;;;;;;6126136;23;20018;-96
2021/12/11 02:15:29;;;;;;;44.40;21.88;;;;;;;;;;6125771;23;20033;-96
2021/12/11 02:18:19;;;;;;;38.45;21.65;;;;;;;;;;6126279;23;20016;-96
2021/12/11 02:20:51;;;;;;;44.58;21.60;;;;;;;;;;6111084;23;20042;-96
2021/12/11 02:23:17;;;;;;;45.53;22.88;;;;;;;;;;6124432;23;20032;-95
2021/12/11 02:25:46;;;;;;;38.75;20.00;;;;;;;;;;6123906;23;20053;-95
2021/12/11 02:28:21;;;;;;;176.93;30.58;;;;;;;;;;6121787;23;20026;-96
2021/12/11 02:30:49;;;;;;;50.33;24.00;;;;;;;;;;6126183;23;20012;-95
2021/12/11 02:33:22;;;;;;;48.63;26.20;;;;;;;;;;6128585;23;20013;-96
2021/12/11 02:35:52;;;;;;;49.00;24.65;;;;;;;;;;6127455;23;20009;-96
2021/12/11 02:38:21;;;;;;;41.53;22.27;;;;;;;;;;6127768;23;20041;-96
2021/12/11 02:40:50;;;;;;;42.53;23.73;;;;;;;;;;6128043;23;20021;-96
2021/12/11 02:43:37;;;;;;;42.17;23.38;;;;;;;;;;6126070;23;20006;-96
2021/12/11 02:46:09;;;;;;;53.03;26.88;;;;;;;;;;6126916;23;20037;-96
2021/12/11 02:48:37;;;;;;;44.42;23.83;;;;;;;;;;6127083;23;20022;-96
2021/12/11 02:51:12;;;;;;;49.63;24.58;;;;;;;;;;6126137;23;20069;-96
2021/12/11 02:53:39;;;;;;;44.90;23.15;;;;;;;;;;6127618;23;20017;-95
2021/12/11 02:56:11;;;;;;;55.10;26.85;;;;;;;;;;6127225;23;20032;-96
2021/12/11 02:58:39;;;;;;;48.22;25.33;;;;;;;;;;6125555;23;20002;-96
2021/12/11 03:01:13;;;;;;;46.75;23.27;;;;;;;;;;6126614;23;20029;-96
2021/12/11 03:03:41;;;;;;;;;;;;;;;;;;6126301;23;20018;-96
2021/12/11 03:06:22;;;;;;;44.17;22.17;;;;;;;;;;6101261;23;19916;-96
2021/12/11 03:08:52;;;;;;;40.92;22.10;;;;;;;;;;6122715;23;20022;-96
2021/12/11 03:11:20;;;;;;;42.08;22.05;;;;;;;;;;6123435;23;20034;-96
2021/12/11 03:13:50;;;;;;;45.67;23.33;;;;;;;;;;6124388;23;20002;-96
2021/12/11 03:16:25;;;;;;;42.17;23.23;;;;;;;;;;6126152;23;20073;-96
2021/12/11 03:18:52;;;;;;;41.28;22.15;;;;;;;;;;6126637;23;20022;-96
2021/12/11 03:21:18;;;;;;;41.80;21.20;;;;;;;;;;6123645;23;20017;-96
2021/12/11 03:23:45;;;;;;;43.63;22.23;;;;;;;;;;6123015;23;20006;-96
2021/12/11 03:26:34;;;;;;;43.25;22.52;;;;;;;;;;6104790;23;20053;-95
2021/12/11 03:29:16;;;;;;;47.85;22.23;;;;;;;;;;6124440;23;20029;-96
2021/12/11 03:31:47;;;;;;;49.63;22.42;;;;;;;;;;6144966;23;20417;-96
2021/12/11 03:34:43;;;;;;;39.53;20.13;;;;;;;;;;6123321;23;20029;-96
2021/12/11 03:37:23;;;;;;;33.97;19.38;;;;;;;;;;6074978;23;20030;-96
2021/12/11 03:39:55;;;;;;;35.33;18.45;;;;;;;;;;6124878;23;20002;-95
2021/12/11 03:42:30;;;;;;;37.75;21.33;;;;;;;;;;6124979;23;20062;-96
2021/12/11 03:45:04;;;;;;;37.22;19.70;;;;;;;;;;6147556;23;20014;-96
2021/12/11 03:47:33;;;;;;;47.22;21.55;;;;;;;;;;6123308;23;20080;-96
2021/12/11 03:49:59;;;;;;;40.45;20.20;;;;;;;;;;6120508;23;20049;-96
2021/12/11 03:52:25;;;;;;;36.08;21.08;;;;;;;;;;6074537;23;20017;-96
2021/12/11 03:54:52;;;;;;;45.70;21.60;;;;;;;;;;6143002;23;20018;-96
2021/12/11 03:57:31;;;;;;;39.33;20.25;;;;;;;;;;6146683;23;20038;-96
2021/12/11 03:59:58;;;;;;;40.83;20.10;;;;;;;;;;6118452;23;20104;-96
2021/12/11 04:02:26;;;;;;;40.65;20.17;;;;;;;;;;6117469;23;20018;-96
2021/12/11 04:04:55;;;;;;;44.08;21.92;;;;;;;;;;6117922;23;20033;-96
2021/12/11 04:07:24;;;;;;;41.90;20.90;;;;;;;;;;6117060;23;20091;-96
2021/12/11 04:09:51;;;;;;;39.45;20.00;;;;;;;;;;6113835;23;20018;-96
2021/12/11 04:12:19;;;;;;;42.20;20.85;;;;;;;;;;6117429;23;20029;-96
2021/12/11 04:14:48;;;;;;;38.55;20.20;;;;;;;;;;6118866;23;20018;-96
2021/12/11 04:17:18;;;;;;;39.72;21.10;;;;;;;;;;6122191;23;20041;-96
2021/12/11 04:19:46;;;;;;;43.58;21.05;;;;;;;;;;6120547;23;20041;-96
2021/12/11 04:22:12;;;;;;;43.42;21.50;;;;;;;;;;6115362;23;20022;-95
2021/12/11 04:24:40;;;;;;;43.60;21.60;;;;;;;;;;6114191;23;20018;-96
2021/12/11 04:27:08;;;;;;;45.13;21.38;;;;;;;;;;6067254;23;20029;-96
2021/12/11 04:29:35;;;;;;;44.05;22.50;;;;;;;;;;6113872;23;20097;-96
2021/12/11 04:32:02;;;;;;;51.33;22.40;;;;;;;;;;6115165;23;20045;-96
2021/12/11 04:34:30;;;;;;;47.45;22.77;;;;;;;;;;6114945;23;20018;-96
2021/12/11 04:37:01;;;;;;;48.17;22.92;;;;;;;;;;6119819;23;20022;-95
2021/12/11 04:39:34;;;;;;;43.30;20.60;;;;;;;;;;6117583;23;20078;-96
2021/12/11 04:42:10;;;;;;;38.45;19.83;;;;;;;;;;6119290;23;20026;-96
2021/12/11 04:44:41;;;;;;;41.08;20.48;;;;;;;;;;6118107;23;20022;-96
2021/12/11 04:47:12;;;;;;;40.38;20.23;;;;;;;;;;6114796;23;20045;-96
2021/12/11 04:49:47;;;;;;;44.35;22.50;;;;;;;;;;6116356;23;20018;-96
2021/12/11 04:52:19;;;;;;;44.75;21.80;;;;;;;;;;6072522;23;20022;-96
2021/12/11 04:55:04;;;;;;;39.05;20.02;;;;;;;;;;6118180;23;20018;-96
2021/12/11 05:11:08;;;;;;;52.33;23.17;;;;;;;;;;6115500;23;20104;-96
2021/12/11 05:13:34;;;;;;;67.53;30.83;;;;;;;;;;6139524;23;20018;-96
2021/12/11 05:16:05;;;;;;;73.85;31.88;;;;;;;;;;6068742;23;20047;-96
2021/12/11 05:18:32;;;;;;;70.88;28.48;;;;;;;;;;6070411;23;20017;-96
2021/12/11 05:21:01;;;;;;;76.38;30.88;;;;;;;;;;6117413;23;20021;-96
2021/12/11 05:23:27;;;;;;;73.63;30.83;;;;;;;;;;6117446;23;20018;-96
2021/12/11 05:25:54;;;;;;;72.40;29.50;;;;;;;;;;6118124;23;20029;-95
2021/12/11 05:28:21;;;;;;;64.90;27.40;;;;;;;;;;6120445;23;20087;-95
2021/12/11 05:30:59;;;;;;;48.72;23.35;;;;;;;;;;6122642;23;20018;-96
2021/12/11 05:33:28;;;;;;;55.03;26.52;;;;;;;;;;6146734;23;20018;-96
2021/12/11 05:35:55;;;;;;;52.03;24.05;;;;;;;;;;6123883;23;20029;-96
2021/12/11 05:38:22;;;;;;;60.80;25.63;;;;;;;;;;6119508;23;20021;-96
2021/12/11 05:40:59;;;;;;;49.45;25.45;;;;;;;;;;6147961;23;20073;-96
2021/12/11 05:43:29;;;;;;;61.00;27.77;;;;;;;;;;6118844;23;20064;-96
2021/12/11 05:45:55;;;;;;;59.78;27.13;;;;;;;;;;6070545;23;20018;-96
2021/12/11 05:48:22;;;;;;;52.50;24.73;;;;;;;;;;6140399;23;20018;-96
2021/12/11 05:50:50;;;;;;;61.30;26.92;;;;;;;;;;6117545;23;20045;-96
2021/12/11 05:53:17;;;;;;;53.00;25.50;;;;;;;;;;6140542;23;20097;-96
2021/12/11 05:55:46;;;;;;;60.33;26.88;;;;;;;;;;6116844;23;20014;-96
2021/12/11 05:58:13;;;;;;;52.00;25.70;;;;;;;;;;6116516;23;20028;-96
2021/12/11 06:00:45;;;;;;;57.58;25.98;;;;;;;;;;6117597;23;20024;-96
2021/12/11 06:03:12;;;;;;;66.63;28.17;;;;;;;;;;6117915;23;20045;-96
2021/12/11 06:05:43;;;;;;;58.60;26.73;;;;;;;;;;6119765;23;20024;-94
2021/12/11 06:08:12;;;;;;;58.47;26.23;;;;;;;;;;6117872;23;20029;-96
2021/12/11 06:10:41;;;;;;;71.95;30.65;;;;;;;;;;6140539;23;20029;-96
2021/12/11 06:13:08;;;;;;;83.05;32.15;;;;;;;;;;6119220;23;20025;-96
2021/12/11 06:15:38;;;;;;;81.40;31.70;;;;;;;;;;6119563;23;20021;-95
2021/12/11 06:18:04;;;;;;;74.55;30.35;;;;;;;;;;6118130;23;20042;-96
2021/12/11 06:20:41;;;;;;;67.78;30.02;;;;;;;;;;6123571;23;20018;-96
2021/12/11 06:23:08;;;;;;;67.75;29.15;;;;;;;;;;6123862;23;20022;-96
2021/12/11 06:25:57;;;;;;;62.67;27.95;;;;;;;;;;6148044;23;20033;-96
2021/12/11 06:28:24;;;;;;;58.63;26.55;;;;;;;;;;6125436;23;20394;-96
2021/12/11 06:31:07;;;;;;;53.38;24.98;;;;;;;;;;6122793;23;20021;-96
2021/12/11 06:33:59;;;;;;;58.35;25.73;;;;;;;;;;6034418;23;20024;-96
2021/12/11 06:36:52;;;;;;;52.35;24.58;;;;;;;;;;6032071;23;20039;-96
2021/12/11 06:39:23;;;;;;;49.88;25.85;;;;;;;;;;6032394;23;20024;-96
2021/12/11 06:41:52;;;;;;;56.10;25.88;;;;;;;;;;6032760;23;20515;-96
2021/12/11 06:44:28;;;;;;;54.17;26.05;;;;;;;;;;6032864;23;20030;-96
2021/12/11 06:47:20;;;;;;;56.05;26.25;;;;;;;;;;6009383;23;20020;-96
2021/12/11 06:49:49;;;;;;;58.15;24.92;;;;;;;;;;5973889;23;20093;-95
2021/12/11 06:52:18;;;;;;;52.60;25.02;;;;;;;;;;6024719;23;20027;-96
2021/12/11 06:55:00;;;;;;;57.33;26.98;;;;;;;;;;6035948;23;20019;-95
2021/12/11 06:57:27;;;;;;;54.55;25.95;;;;;;;;;;6034391;23;20023;-96
2021/12/11 06:59:55;;;;;;;52.88;24.58;;;;;;;;;;6031899;23;20103;-96
2021/12/11 07:02:24;;;;;;;48.00;24.75;;;;;;;;;;6007117;23;20048;-96
2021/12/11 07:04:54;;;;;;;48.22;24.05;;;;;;;;;;5991434;23;20060;-96
2021/12/11 07:07:23;;;;;;;53.88;24.85;;;;;;;;;;6011580;23;20026;-96
2021/12/11 07:09:50;;;;;;;49.85;24.90;;;;;;;;;;6007701;23;20047;-96
2021/12/11 07:12:16;;;;;;;52.45;24.33;;;;;;;;;;6076648;23;20345;-96
2021/12/11 07:14:43;;;;;;;53.13;25.42;;;;;;;;;;6101259;23;20021;-95
2021/12/11 07:17:09;;;;;;;51.90;25.33;;;;;;;;;;6100265;23;20069;-96
2021/12/11 07:19:35;;;;;;;51.15;25.35;;;;;;;;;;6100358;23;20021;-95
2021/12/11 07:22:01;;;;;;;52.35;24.38;;;;;;;;;;6097303;23;20022;-96
2021/12/11 07:24:32;;;;;;;56.45;24.27;;;;;;;;;;6100179;23;20018;-96
2021/12/11 07:26:59;;;;;;;54.55;25.98;;;;;;;;;;6098118;23;20025;-96
2021/12/11 07:29:25;;;;;;;54.17;25.38;;;;;;;;;;6099101;23;20462;-96
2021/12/11 07:31:53;;;;;;;56.85;25.83;;;;;;;;;;6099241;23;20453;-95
2021/12/11 07:34:19;;;;;;;63.58;26.83;;;;;;;;;;6100322;23;20014;-96
2021/12/11 07:36:46;;;;;;;67.05;27.88;;;;;;;;;;6101787;23;20028;-96
2021/12/11 07:39:14;;;;;;;59.72;26.85;;;;;;;;;;6102897;23;20022;-96
2021/12/11 07:41:40;;;;;;;59.05;26.17;;;;;;;;;;6099920;23;20401;-96
2021/12/11 07:44:07;;;;;;;61.80;26.95;;;;;;;;;;6103308;23;20053;-95
2021/12/11 07:46:34;;;;;;;54.75;26.73;;;;;;;;;;6101005;23;20237;-96
2021/12/11 07:49:00;;;;;;;60.05;27.40;;;;;;;;;;6098923;23;20034;-96
2021/12/11 07:51:27;;;;;;;51.97;25.88;;;;;;;;;;6098315;23;20018;-95
2021/12/11 07:53:53;;;;;;;63.47;27.50;;;;;;;;;;6098009;23;20462;-96
2021/12/11 07:56:20;;;;;;;51.15;25.90;;;;;;;;;;6102740;23;20022;-96
2021/12/11 07:58:48;;;;;;;51.92;24.33;;;;;;;;;;6122122;23;20022;-95
2021/12/11 08:01:14;;;;;;;61.63;26.40;;;;;;;;;;6097913;23;20048;-95
2021/12/11 08:03:40;;;;;;;49.28;24.85;;;;;;;;;;6097259;23;20049;-95
2021/12/11 08:06:07;;;;;;;57.30;25.33;;;;;;;;;;6097656;23;20018;-96
2021/12/11 08:08:33;;;;;;;64.57;28.42;;;;;;;;;;6099413;23;20343;-95
2021/12/11 08:11:04;;;;;;;61.35;28.65;;;;;;;;;;6105335;23;20350;-96
2021/12/11 08:13:32;;;;;;;69.13;29.98;;;;;;;;;;6117828;23;20018;-96
2021/12/11 08:15:59;;;;;;;75.20;30.85;;;;;;;;;;6109276;23;20028;-96
2021/12/11 08:18:27;;;;;;;66.15;29.45;;;;;;;;;;6113034;23;20044;-96
2021/12/11 08:21:07;;;;;;;66.93;30.88;;;;;;;;;;6120340;23;20026;-96
2021/12/11 08:24:04;;;;;;;79.45;33.15;;;;;;;;;;6123163;23;20018;-96
2021/12/11 08:26:37;;;;;;;83.60;34.88;;;;;;;;;;6144943;23;20029;-96
2021/12/11 08:29:38;;;;;;;92.35;36.40;;;;;;;;;;6123123;23;20022;-96
2021/12/11 08:32:05;;;;;;;79.05;34.33;;;;;;;;;;6120112;23;20033;-96
2021/12/11 08:34:31;;;;;;;81.65;33.85;;;;;;;;;;6123018;23;20002;-96
2021/12/11 08:36:58;;;;;;;94.20;34.40;;;;;;;;;;6115326;23;20077;-96
2021/12/11 08:39:26;;;;;;;91.32;37.58;;;;;;;;;;6109943;23;20018;-95
2021/12/11 08:41:53;;;;;;;89.20;36.63;;;;;;;;;;6106156;23;20021;-96
2021/12/11 08:44:20;;;;;;;105.88;37.15;;;;;;;;;;6109823;23;20014;-96
2021/12/11 08:46:49;;;;;;;117.15;42.53;;;;;;;;;;6104358;23;20057;-96
2021/12/11 08:49:20;;;;;;;114.97;43.17;;;;;;;;;;6101695;23;20362;-95
2021/12/11 08:51:57;;;;;;;136.68;47.47;;;;;;;;;;6103566;23;20018;-95
2021/12/11 08:54:24;;;;;;;139.60;49.15;;;;;;;;;;6101300;23;20022;-94
2021/12/11 08:56:50;;;;;;;171.98;57.55;;;;;;;;;;6099061;23;20454;-95
2021/12/11 08:59:18;;;;;;;191.80;61.67;;;;;;;;;;6098303;23;20358;-96
2021/12/11 09:02:03;;;;;;;240.25;72.22;;;;;;;;;;6097916;23;20379;-96
2021/12/11 09:04:34;;;;;;;192.80;67.40;;;;;;;;;;6098519;23;20040;-96
2021/12/11 09:07:03;;;;;;;207.98;68.95;;;;;;;;;;6099793;23;20025;-95
2021/12/11 09:09:40;;;;;;;182.10;63.92;;;;;;;;;;6100853;23;20025;-96
2021/12/11 09:12:17;;;;;;;188.82;67.70;;;;;;;;;;6099475;23;20025;-96
2021/12/11 09:15:07;;;;;;;189.20;67.72;;;;;;;;;;6071048;23;20442;-96
2021/12/11 09:17:43;;;;;;;167.32;64.18;;;;;;;;;;6063980;23;20068;-96
2021/12/11 09:20:15;;;;;;;151.57;57.53;;;;;;;;;;6098527;23;20041;-96
2021/12/11 09:22:46;;;;;;;125.30;52.47;;;;;;;;;;6097983;23;20014;-94
2021/12/11 09:25:16;;;;;;;121.28;50.90;;;;;;;;;;6098306;23;20018;-94
2021/12/11 09:27:59;;;;;;;107.25;46.72;;;;;;;;;;6097867;23;20021;-93
2021/12/11 09:30:45;;;;;;;100.78;46.08;;;;;;;;;;6098220;23;20022;-94
2021/12/11 09:33:16;;;;;;;101.93;45.45;;;;;;;;;;6054350;23;20092;-96
2021/12/11 09:35:48;;;;;;;98.28;43.13;;;;;;;;;;6097800;23;20026;-96
2021/12/11 09:38:17;;;;;;;109.38;46.08;;;;;;;;;;6098126;23;20064;-94
2021/12/11 09:40:47;;;;;;;101.50;44.70;;;;;;;;;;6097772;23;20068;-94
2021/12/11 09:43:25;;;;;;;103.43;43.22;;;;;;;;;;6097218;23;20462;-94
2021/12/11 09:45:51;;;;;;;99.15;45.15;;;;;;;;;;6097768;23;20017;-95
2021/12/11 09:48:18;;;;;;;101.50;43.42;;;;;;;;;;6097899;23;20509;-95
2021/12/11 09:50:52;;;;;;;91.53;42.63;;;;;;;;;;6097545;23;20037;-96
2021/12/11 09:53:18;;;;;;;;;;;;;;;;;;6101772;23;20056;-96
2021/12/11 09:55:45;;;;;;;116.28;49.50;;;;;;;;;;6105238;23;19940;-96
2021/12/11 09:58:13;;;;;;;110.65;48.25;;;;;;;;;;6097361;23;20018;-95
2021/12/11 10:00:43;;;;;;;113.82;51.97;;;;;;;;;;6097762;23;20021;-94
2021/12/11 10:03:10;;;;;;;100.13;46.00;;;;;;;;;;6097825;23;20022;-93
2021/12/11 10:05:43;;;;;;;90.30;44.72;;;;;;;;;;6097698;23;20014;-93
2021/12/11 10:08:30;;;;;;;82.00;42.03;;;;;;;;;;6097956;23;20399;-94
2021/12/11 10:11:05;;;;;;;83.65;43.22;;;;;;;;;;6096911;23;20462;-94
2021/12/11 10:13:33;;;;;;;85.47;43.00;;;;;;;;;;6097594;23;20089;-95
2021/12/11 10:15:59;;;;;;;82.97;42.28;;;;;;;;;;6097309;23;20022;-95
2021/12/11 10:18:27;;;;;;;73.97;39.60;;;;;;;;;;6098389;23;20029;-94
2021/12/11 10:21:01;;;;;;;70.53;38.75;;;;;;;;;;6096868;23;20029;-93
2021/12/11 10:23:32;;;;;;;75.75;38.70;;;;;;;;;;6097739;23;20014;-95
2021/12/11 10:26:00;;;;;;;71.05;37.63;;;;;;;;;;6096561;23;20240;-94
2021/12/11 10:28:28;;;;;;;69.68;39.40;;;;;;;;;;6097382;23;20077;-92
2021/12/11 10:30:57;;;;;;;75.50;40.08;;;;;;;;;;6096867;23;20096;-94
2021/12/11 10:33:24;;;;;;;72.57;37.92;;;;;;;;;;6097112;23;20045;-93
2021/12/11 10:35:53;;;;;;;76.00;39.58;;;;;;;;;;6096307;23;20104;-93
2021/12/11 10:38:20;;;;;;;236.57;142.35;;;;;;;;;;6096950;23;20468;-94
2021/12/11 10:40:49;;;;;;;259.45;157.18;;;;;;;;;;6096069;23;20045;-95
2021/12/11 10:43:18;;;;;;;72.75;39.95;;;;;;;;;;6097320;23;20442;-94
2021/12/11 10:45:45;;;;;;;84.50;43.08;;;;;;;;;;6097138;23;20018;-94
2021/12/11 10:48:12;;;;;;;142.73;91.15;;;;;;;;;;6097746;23;20014;-93
2021/12/11 10:50:44;;;;;;;110.68;64.80;;;;;;;;;;6097196;23;20049;-96
2021/12/11 10:53:11;;;;;;;105.45;54.95;;;;;;;;;;6097404;23;20021;-95
2021/12/11 10:55:38;;;;;;;105.55;52.60;;;;;;;;;;6096742;23;20025;-94
2021/12/11 10:58:06;;;;;;;87.53;44.15;;;;;;;;;;6096864;23;20018;-95
2021/12/11 11:00:35;;;;;;;71.43;39.90;;;;;;;;;;6097265;23;20052;-96
2021/12/11 11:03:02;;;;;;;72.38;40.38;;;;;;;;;;6096697;23;20026;-95
2021/12/11 11:05:28;;;;;;;72.45;38.80;;;;;;;;;;6097689;23;20028;-95
2021/12/11 11:07:55;;;;;;;74.07;38.50;;;;;;;;;;6097164;23;20020;-96
2021/12/11 11:10:23;;;;;;;78.00;40.88;;;;;;;;;;6097384;23;20025;-96
2021/12/11 11:12:50;;;;;;;75.53;40.55;;;;;;;;;;6098827;23;20470;-95
2021/12/11 11:15:20;;;;;;;83.30;43.88;;;;;;;;;;6092899;23;20025;-95
2021/12/11 11:17:46;;;;;;;88.72;45.35;;;;;;;;;;6093179;23;20014;-95
2021/12/11 11:20:14;;;;;;;77.72;44.60;;;;;;;;;;6099300;23;20030;-96
2021/12/11 11:22:41;;;;;;;78.55;41.83;;;;;;;;;;6104808;23;20025;-96
2021/12/11 11:25:25;;;;;;;76.22;38.38;;;;;;;;;;6071937;23;20022;-96
2021/12/11 11:27:56;;;;;;;75.43;40.00;;;;;;;;;;6101536;23;20057;-96
2021/12/11 11:30:28;;;;;;;63.50;35.38;;;;;;;;;;6073063;23;20022;-96
2021/12/11 11:32:54;;;;;;;60.60;35.67;;;;;;;;;;6068029;23;20165;-95
2021/12/11 11:35:22;;;;;;;58.88;34.45;;;;;;;;;;6092812;23;20019;-94
2021/12/11 11:37:50;;;;;;;57.08;33.10;;;;;;;;;;6092186;23;20019;-93
2021/12/11 11:40:18;;;;;;;93.70;46.28;;;;;;;;;;6067909;23;20021;-93
2021/12/11 11:42:44;;;;;;;89.38;43.08;;;;;;;;;;6067585;23;20018;-94
2021/12/11 11:45:11;;;;;;;614.35;233.18;;;;;;;;;;6067638;23;20412;-94
2021/12/11 11:47:37;;;;;;;193.07;76.65;;;;;;;;;;6068072;23;20014;-93
2021/12/11 11:50:04;;;;;;;96.60;48.10;;;;;;;;;;6068163;23;20026;-93
2021/12/11 11:52:30;;;;;;;66.30;36.42;;;;;;;;;;6067644;23;20029;-93
2021/12/11 11:54:59;;;;;;;70.00;36.90;;;;;;;;;;6067644;23;20733;-94
2021/12/11 11:57:32;;;;;;;65.85;34.20;;;;;;;;;;6068050;23;20029;-93
2021/12/11 11:59:59;;;;;;;81.78;49.67;;;;;;;;;;6067106;23;20018;-94
2021/12/11 12:02:27;;;;;;;70.65;36.75;;;;;;;;;;6067493;23;20018;-92
2021/12/11 12:04:54;;;;;;;72.00;38.22;;;;;;;;;;6067655;23;20033;-93
2021/12/11 12:07:26;;;;;;;70.05;36.67;;;;;;;;;;6092662;23;20026;-94
2021/12/11 12:09:52;;;;;;;73.70;39.15;;;;;;;;;;6094177;23;20387;-93
2021/12/11 12:12:22;;;;;;;65.90;33.70;;;;;;;;;;6069770;23;20391;-93
2021/12/11 12:14:48;;;;;;;66.07;34.40;;;;;;;;;;6070179;23;20078;-95
2021/12/11 12:17:18;;;;;;;62.63;34.72;;;;;;;;;;6070532;23;20451;-92
2021/12/11 12:19:44;;;;;;;74.65;35.50;;;;;;;;;;6070103;23;20018;-95
2021/12/11 12:22:12;;;;;;;67.00;32.83;;;;;;;;;;6070270;23;20018;-96
2021/12/11 12:24:39;;;;;;;79.85;36.67;;;;;;;;;;6075033;23;20053;-96
2021/12/11 12:27:07;;;;;;;83.45;39.63;;;;;;;;;;6072290;23;20022;-96
2021/12/11 12:29:36;;;;;;;75.07;36.00;;;;;;;;;;6076933;23;20086;-95
2021/12/11 12:32:07;;;;;;;71.78;35.20;;;;;;;;;;6075953;23;20042;-96
2021/12/11 12:34:34;;;;;;;69.88;37.38;;;;;;;;;;6108828;23;20030;-96
2021/12/11 12:37:00;;;;;;;68.05;30.88;;;;;;;;;;6108112;23;20025;-96
2021/12/11 12:39:35;;;;;;;68.15;32.05;;;;;;;;;;6074546;23;20022;-96
2021/12/11 12:42:15;;;;;;;69.72;31.30;;;;;;;;;;6074260;23;20053;-95
2021/12/11 12:44:41;;;;;;;75.63;40.78;;;;;;;;;;6078650;23;20029;-96
2021/12/11 12:47:07;;;;;;;64.82;33.80;;;;;;;;;;6077801;23;20019;-95
2021/12/11 12:49:34;;;;;;;69.47;35.35;;;;;;;;;;6071067;23;20073;-94
2021/12/11 12:52:05;;;;;;;66.97;33.20;;;;;;;;;;6076357;23;20053;-94
2021/12/11 12:54:34;;;;;;;69.68;31.33;;;;;;;;;;6073297;23;20036;-96
2021/12/11 12:57:11;;;;;;;65.50;33.53;;;;;;;;;;6049412;23;20018;-96
2021/12/11 12:59:38;;;;;;;69.57;32.47;;;;;;;;;;6074583;23;20509;-96
2021/12/11 13:02:07;;;;;;;68.85;31.63;;;;;;;;;;6071437;23;20518;-95
2021/12/11 13:04:36;;;;;;;67.22;30.80;;;;;;;;;;6068794;23;20118;-94
2021/12/11 13:07:05;;;;;;;63.03;33.20;;;;;;;;;;6093145;23;20022;-93
2021/12/11 13:09:31;;;;;;;63.22;32.33;;;;;;;;;;6069303;23;20023;-94
2021/12/11 13:12:14;;;;;;;67.88;34.92;;;;;;;;;;6069210;23;20105;-94
2021/12/11 13:14:42;;;;;;;71.05;33.00;;;;;;;;;;6068831;23;20474;-92
2021/12/11 13:17:11;;;;;;;67.55;33.90;;;;;;;;;;6070168;23;20028;-94
2021/12/11 13:19:39;;;;;;;68.95;33.25;;;;;;;;;;6073557;23;20097;-96
2021/12/11 13:22:11;;;;;;;75.63;33.75;;;;;;;;;;6083669;23;20029;-96
2021/12/11 13:24:37;;;;;;;68.72;33.05;;;;;;;;;;6078379;23;20049;-91
2021/12/11 13:27:06;;;;;;;65.32;33.25;;;;;;;;;;6092985;23;20022;-92
2021/12/11 13:29:34;;;;;;;65.95;31.63;;;;;;;;;;6069189;23;20023;-90
2021/12/11 13:32:05;;;;;;;57.70;29.98;;;;;;;;;;6069024;23;20015;-93
2021/12/11 13:34:34;;;;;;;66.18;30.25;;;;;;;;;;6068860;23;20455;-91
2021/12/11 13:37:01;;;;;;;203.55;71.93;;;;;;;;;;6069012;23;20018;-91
2021/12/11 13:39:27;;;;;;;85.68;39.17;;;;;;;;;;6092994;23;20022;-91
2021/12/11 13:41:59;;;;;;;197.75;79.22;;;;;;;;;;6068808;23;20487;-89
2021/12/11 13:44:26;;;;;;;118.85;47.42;;;;;;;;;;6068985;23;20055;-91
2021/12/11 13:46:52;;;;;;;159.65;58.95;;;;;;;;;;6068774;23;20022;-91
2021/12/11 13:49:18;;;;;;;165.02;61.72;;;;;;;;;;6068627;23;20093;-91
2021/12/11 13:51:45;;;;;;;165.48;62.72;;;;;;;;;;6092713;23;20061;-91
2021/12/11 13:54:11;;;;;;;159.10;58.75;;;;;;;;;;6069132;23;20073;-92
2021/12/11 13:56:39;;;;;;;260.55;87.13;;;;;;;;;;6068754;23;20022;-92
2021/12/11 13:59:05;;;;;;;94.85;43.30;;;;;;;;;;6068817;23;20412;-91
2021/12/11 14:01:32;;;;;;;744.80;368.65;;;;;;;;;;6068876;23;20022;-93
2021/12/11 14:04:00;;;;;;;388.23;150.85;;;;;;;;;;6067701;23;20018;-92
2021/12/11 14:06:27;;;;;;;209.02;89.32;;;;;;;;;;6068769;23;20019;-91
2021/12/11 14:08:59;;;;;;;256.10;129.95;;;;;;;;;;6068399;23;20026;-92
2021/12/11 14:11:25;;;;;;;128.45;59.15;;;;;;;;;;6068693;23;20065;-92
2021/12/11 14:13:51;;;;;;;132.95;62.60;;;;;;;;;;6069415;23;20021;-91
2021/12/11 14:16:22;;;;;;;146.77;78.63;;;;;;;;;;6097745;23;20018;-92
2021/12/11 14:18:49;;;;;;;122.28;74.97;;;;;;;;;;6096927;23;20036;-91
2021/12/11 14:21:16;;;;;;;93.88;53.58;;;;;;;;;;6096883;23;20057;-93
2021/12/11 14:23:42;;;;;;;96.85;46.05;;;;;;;;;;6097016;23;20451;-92
2021/12/11 14:26:10;;;;;;;100.38;52.63;;;;;;;;;;6097332;23;20022;-93
2021/12/11 14:28:36;;;;;;;88.65;39.58;;;;;;;;;;6097327;23;20458;-93
2021/12/11 14:31:05;;;;;;;79.03;39.95;;;;;;;;;;6096779;23;20024;-94
2021/12/11 14:33:32;;;;;;;81.47;37.70;;;;;;;;;;6096822;23;20014;-91
2021/12/11 14:35:58;;;;;;;83.15;39.95;;;;;;;;;;6097432;23;20017;-91
2021/12/11 14:38:24;;;;;;;83.78;38.97;;;;;;;;;;6097436;23;20010;-91
2021/12/11 14:40:51;;;;;;;91.25;45.90;;;;;;;;;;6096738;23;20466;-93
2021/12/11 14:43:20;;;;;;;81.80;39.08;;;;;;;;;;6096691;23;20021;-94
2021/12/11 14:45:47;;;;;;;74.55;37.55;;;;;;;;;;6096766;23;20028;-93
2021/12/11 14:48:13;;;;;;;77.30;38.20;;;;;;;;;;6096831;23;20022;-94
2021/12/11 14:50:50;;;;;;;82.55;38.35;;;;;;;;;;6097523;23;20077;-94
2021/12/11 14:53:19;;;;;;;76.43;37.63;;;;;;;;;;6097676;23;20058;-96
2021/12/11 14:55:46;;;;;;;76.50;38.00;;;;;;;;;;6099175;23;20076;-96
2021/12/11 14:58:13;;;;;;;82.90;38.25;;;;;;;;;;6099867;23;20046;-96
2021/12/11 15:00:40;;;;;;;85.05;39.67;;;;;;;;;;6097977;23;20141;-96
2021/12/11 15:03:07;;;;;;;81.53;39.03;;;;;;;;;;6098135;23;20362;-96
2021/12/11 15:05:40;;;;;;;95.38;44.67;;;;;;;;;;6097214;23;20022;-95
2021/12/11 15:08:07;;;;;;;141.43;38.20;;;;;;;;;;6097262;23;20076;-96
2021/12/11 15:10:34;;;;;;;158.70;37.92;;;;;;;;;;6097078;23;20032;-95